Stolt Ebony — MBAU9 — position and weather

sailwx.info

Track history (hours):
 
Tides and Currents Weather Stations Pressure Air Temp Water Temp Dewpoint Dewpoint Depression Visibility Wind Speed Wind Dir Waves Ship Positions

Stolt Ebony

Last reported at 2018-Jul-21 02:29 UTC. Time now 2018-Jul-21 11:35 UTC.
Position S 34°45' E 018°56'.

Length 185 m; draft 10.2 m.

Type: Ship. MMSI: 232008101.

Date/timePositionNaut miles runAvg speedWind from/ knotsBaromVisibWave heightAir tempDewpointWater temp
2018-Jul-21 02:29S 34°45' E 018°56'713.1
2018-Jul-21 01:58S 34°43' E 018°48'613.2
2018-Jul-21 01:29S 34°40' E 018°41'1213.3
2018-Jul-21 00:33S 34°35' E 018°28'113.7
2018-Jul-21 00:29S 34°34' E 018°27'613.6
2018-Jul-21 00:00S 34°31' E 018°20'813.9
2018-Jul-20 23:28S 34°27' E 018°12'713.3
2018-Jul-20 22:56S 34°24' E 018°05'512.5
2018-Jul-20 22:30S 34°21' E 017°60'612.8
2018-Jul-20 22:00S 34°15' E 017°56'712.7
2018-Jul-20 21:28S 34°09' E 017°51'712.8
2018-Jul-20 20:54S 34°03' E 017°47'  
Track history (hours):
 
Tides and Currents Weather Stations Pressure Air Temp Water Temp Dewpoint Dewpoint Depression Visibility Wind Speed Wind Dir Waves Ship Positions

Stolt Ebony

Last reported at 2018-Jul-21 02:29 UTC. Time now 2018-Jul-21 11:35 UTC.
Position S 34°45' E 018°56'.

Length 185 m; draft 10.2 m.

Type: Ship. MMSI: 232008101.

Date/timePositionNaut miles runAvg speedWind from/ knotsBaromVisibWave heightAir tempDewpointWater temp
2018-Jul-21 02:29S 34°45' E 018°56'713.1
2018-Jul-21 01:58S 34°43' E 018°48'613.2
2018-Jul-21 01:29S 34°40' E 018°41'1213.3
2018-Jul-21 00:33S 34°35' E 018°28'113.7
2018-Jul-21 00:29S 34°34' E 018°27'613.6
2018-Jul-21 00:00S 34°31' E 018°20'813.9
2018-Jul-20 23:28S 34°27' E 018°12'713.3
2018-Jul-20 22:56S 34°24' E 018°05'512.5
2018-Jul-20 22:30S 34°21' E 017°60'612.8
2018-Jul-20 22:00S 34°15' E 017°56'712.7
2018-Jul-20 21:28S 34°09' E 017°51'712.8
2018-Jul-20 20:54S 34°03' E 017°47'  

Dump ship's entire track history